Time;durP1;ratioP1;P1;durP2;ratioP2;P2;SDS_P1;SDS_P2;PMS_P1;PMS_P2;Temp;Humidity;BMP_temperature;BMP_pressure;BME280_temperature;BME280_humidity;BME280_pressure;Samples;Min_cycle;Max_cycle;Signal;HPM_P1;HPM_P2
2023/03/31 00:01:08;;;;;;;19.80;9.32;;;8.40;90.60;;;;;;5073966;28;20546;-71
2023/03/31 00:03:37;;;;;;;19.50;10.93;;;8.40;90.40;;;;;;5073773;28;20717;-71
2023/03/31 00:06:16;;;;;;;15.32;9.00;;;8.50;90.50;;;;;;5073164;28;20676;-70
2023/03/31 00:08:50;;;;;;;19.50;9.60;;;8.50;90.50;;;;;;5060982;28;20266;-71
2023/03/31 00:11:17;;;;;;;18.60;7.78;;;8.60;90.60;;;;;;5053704;28;20220;-70
2023/03/31 00:13:44;;;;;;;10.65;8.02;;;8.60;90.70;;;;;;5053699;28;20556;-70
2023/03/31 00:16:12;;;;;;;7.40;6.00;;;8.60;90.70;;;;;;5053516;28;20290;-70
2023/03/31 00:18:46;;;;;;;8.77;6.25;;;8.60;90.50;;;;;;5053347;28;20222;-71
2023/03/31 00:21:23;;;;;;;9.40;5.72;;;8.70;90.60;;;;;;5053368;28;20197;-70
2023/03/31 00:23:53;;;;;;;8.80;6.32;;;8.80;90.70;;;;;;5053373;28;20606;-70
2023/03/31 00:26:21;;;;;;;10.40;7.47;;;8.80;90.70;;;;;;5053304;28;20260;-71
2023/03/31 00:28:49;;;;;;;10.18;6.68;;;8.90;90.80;;;;;;5053151;28;20552;-71
2023/03/31 00:31:17;;;;;;;11.73;7.43;;;8.90;91.00;;;;;;5053496;28;20218;-70
2023/03/31 00:33:47;;;;;;;10.45;7.18;;;8.90;91.10;;;;;;5053212;28;20230;-70
2023/03/31 00:36:19;;;;;;;9.60;6.40;;;8.90;91.20;;;;;;5053066;28;20190;-70
2023/03/31 00:38:50;;;;;;;8.88;6.15;;;8.90;91.30;;;;;;5052734;28;20194;-71
2023/03/31 00:41:17;;;;;;;8.30;6.15;;;8.90;91.30;;;;;;5053001;28;20641;-70
2023/03/31 00:44:03;;;;;;;12.57;7.10;;;8.90;91.50;;;;;;5052920;28;20653;-71
2023/03/31 00:46:36;;;;;;;9.00;6.40;;;9.00;91.50;;;;;;5053096;28;20214;-75
2023/03/31 00:49:03;;;;;;;11.30;7.13;;;9.00;91.40;;;;;;5052516;28;20277;-71
2023/03/31 00:51:34;;;;;;;11.23;6.53;;;9.00;91.50;;;;;;5052981;28;20182;-71
2023/03/31 00:54:07;;;;;;;7.72;6.15;;;9.00;91.50;;;;;;5052975;28;20236;-71
2023/03/31 00:56:40;;;;;;;7.53;5.93;;;9.00;91.60;;;;;;5052880;28;20222;-70
2023/03/31 00:59:12;;;;;;;7.03;5.70;;;9.00;91.70;;;;;;5052804;28;20277;-71
2023/03/31 01:01:44;;;;;;;9.68;6.45;;;9.00;91.70;;;;;;5053026;28;20194;-72
2023/03/31 01:04:13;;;;;;;10.00;7.00;;;9.00;91.70;;;;;;5052672;28;20237;-71
2023/03/31 01:06:49;;;;;;;9.32;6.95;;;9.00;91.50;;;;;;5052160;28;20759;-71
2023/03/31 01:09:16;;;;;;;8.85;6.68;;;9.00;91.60;;;;;;5052375;28;20230;-71
2023/03/31 01:11:48;;;;;;;8.13;5.70;;;9.00;91.60;;;;;;5052599;28;20281;-70
2023/03/31 01:14:15;;;;;;;8.25;5.95;;;9.00;91.50;;;;;;5052341;28;20194;-71
2023/03/31 01:16:43;;;;;;;11.10;6.78;;;9.00;91.60;;;;;;5050016;28;20226;-71
2023/03/31 01:19:22;;;;;;;7.50;6.18;;;9.00;91.50;;;;;;5052378;28;20186;-71
2023/03/31 01:22:14;;;;;;;9.32;6.20;;;9.00;91.70;;;;;;5052673;28;20671;-71
2023/03/31 01:25:23;;;;;;;12.52;6.70;;;9.10;91.80;;;;;;5041668;28;20248;-71
2023/03/31 01:27:59;;;;;;;7.68;6.30;;;9.10;91.80;;;;;;4951943;29;20763;-71
2023/03/31 01:31:03;;;;;;;9.13;6.28;;;9.10;91.80;;;;;;5043327;28;20660;-70
2023/03/31 01:34:02;;;;;;;10.43;6.63;;;9.10;91.70;;;;;;5021470;28;20280;-71
2023/03/31 01:37:13;;;;;;;11.35;6.20;;;9.10;91.70;;;;;;5045711;28;20191;-71
2023/03/31 01:40:00;;;;;;;7.78;5.90;;;9.10;91.60;;;;;;4972124;28;20222;-70
2023/03/31 01:42:33;;;;;;;10.00;7.10;;;9.10;91.30;;;;;;5048622;28;20186;-71
2023/03/31 01:45:11;;;;;;;11.32;7.65;;;9.00;91.30;;;;;;5056364;28;20254;-70
2023/03/31 01:47:46;;;;;;;9.07;6.43;;;9.00;91.60;;;;;;5056376;28;20308;-70
2023/03/31 01:50:22;;;;;;;8.30;6.13;;;9.10;91.70;;;;;;5056235;28;20190;-70
2023/03/31 01:53:09;;;;;;;11.18;7.82;;;9.10;91.70;;;;;;5056030;28;20711;-70
2023/03/31 01:55:42;;;;;;;9.07;6.53;;;9.10;91.80;;;;;;5056175;28;20198;-70
2023/03/31 01:58:13;;;;;;;8.50;6.35;;;9.10;91.70;;;;;;5056270;28;20615;-71
2023/03/31 02:00:50;;;;;;;7.95;6.32;;;9.20;91.70;;;;;;5055723;28;20285;-71
2023/03/31 02:03:22;;;;;;;6.93;5.22;;;9.20;91.80;;;;;;5055831;28;20248;-71
2023/03/31 02:05:54;;;;;;;11.20;6.85;;;9.20;91.80;;;;;;5056475;28;20289;-71
2023/03/31 02:08:25;;;;;;;10.10;5.65;;;9.30;92.00;;;;;;5055886;28;20754;-71
2023/03/31 02:10:55;;;;;;;10.55;6.03;;;9.30;91.80;;;;;;5055867;28;20191;-71
2023/03/31 02:13:25;;;;;;;6.38;5.18;;;9.30;91.70;;;;;;5055819;28;20290;-71
2023/03/31 02:15:58;;;;;;;9.45;5.70;;;9.40;91.70;;;;;;5055805;28;20634;-72
2023/03/31 02:18:29;;;;;;;11.60;5.82;;;9.40;92.00;;;;;;5055365;28;20179;-71
2023/03/31 02:20:59;;;;;;;9.93;5.53;;;9.40;92.20;;;;;;5055803;28;20284;-71
2023/03/31 02:23:30;;;;;;;11.20;5.75;;;9.40;92.20;;;;;;5055993;28;20281;-70
2023/03/31 02:26:02;;;;;;;9.65;5.88;;;9.40;92.60;;;;;;5055589;28;20198;-71
2023/03/31 02:28:34;;;;;;;13.80;5.38;;;9.50;92.70;;;;;;5055247;28;20633;-71
2023/03/31 02:31:10;;;;;;;7.97;4.78;;;9.50;92.60;;;;;;5055504;28;20241;-70
2023/03/31 02:33:43;;;;;;;7.28;4.93;;;9.60;92.80;;;;;;5055618;28;20190;-70
2023/03/31 02:36:12;;;;;;;8.27;4.88;;;9.60;93.00;;;;;;5055440;28;20277;-70
2023/03/31 02:38:47;;;;;;;7.93;5.20;;;9.70;93.30;;;;;;5055573;28;20591;-71
2023/03/31 02:41:16;;;;;;;6.40;4.55;;;9.80;92.80;;;;;;5055313;28;20202;-71
2023/03/31 02:43:43;;;;;;;7.45;4.35;;;9.80;92.50;;;;;;5055247;28;20289;-71
2023/03/31 02:46:10;;;;;;;7.28;4.28;;;9.80;92.50;;;;;;5055485;28;20187;-71
2023/03/31 02:48:41;;;;;;;7.57;4.65;;;9.80;92.30;;;;;;5040536;28;20273;-71
2023/03/31 02:51:38;;;;;;;7.25;4.25;;;10.00;91.50;;;;;;5033623;28;20287;-70
2023/03/31 02:54:39;;;;;;;6.57;4.22;;;10.10;91.10;;;;;;5034804;28;20281;-73
2023/03/31 02:57:34;;;;;;;7.88;4.55;;;10.10;90.30;;;;;;5034718;28;20201;-71
2023/03/31 03:00:09;;;;;;;7.00;3.70;;;10.20;90.20;;;;;;5034656;28;20253;-71
2023/03/31 03:02:48;;;;;;;6.53;4.80;;;10.20;90.10;;;;;;5035057;28;20190;-72
2023/03/31 03:05:22;;;;;;;6.25;4.70;;;10.30;90.20;;;;;;5035157;28;20658;-71
2023/03/31 03:07:58;;;;;;;9.15;4.50;;;10.30;90.00;;;;;;5039930;28;20230;-71
2023/03/31 03:10:35;;;;;;;6.30;4.60;;;10.20;90.40;;;;;;5054901;28;20280;-71
2023/03/31 03:13:09;;;;;;;8.52;5.20;;;10.30;90.70;;;;;;5054514;28;20285;-71
2023/03/31 03:15:42;;;;;;;7.75;4.90;;;10.30;91.10;;;;;;5054595;28;20186;-70
2023/03/31 03:18:14;;;;;;;5.30;4.40;;;10.30;91.50;;;;;;5055002;28;20279;-71
2023/03/31 03:20:47;;;;;;;7.60;5.05;;;10.30;91.70;;;;;;5054665;28;20196;-70
2023/03/31 03:23:14;;;;;;;6.72;5.20;;;10.30;91.80;;;;;;5054455;28;20350;-70
2023/03/31 03:25:41;;;;;;;6.43;5.20;;;10.30;91.60;;;;;;5054128;28;20618;-70
2023/03/31 03:28:10;;;;;;;8.13;5.70;;;10.30;91.30;;;;;;5054326;28;20222;-70
2023/03/31 03:30:37;;;;;;;7.63;6.28;;;10.10;91.90;;;;;;5054558;28;20225;-71
2023/03/31 03:33:05;;;;;;;6.55;4.75;;;10.10;92.20;;;;;;5054456;28;20629;-72
2023/03/31 03:35:32;;;;;;;6.93;6.18;;;10.10;92.40;;;;;;5054356;28;20236;-71
2023/03/31 03:37:59;;;;;;;8.00;5.65;;;10.10;91.90;;;;;;5054143;28;20252;-72
2023/03/31 03:40:27;;;;;;;8.60;5.43;;;10.10;92.30;;;;;;5054198;28;20260;-71
2023/03/31 03:42:59;;;;;;;7.82;5.75;;;10.10;92.40;;;;;;5054180;28;20198;-71
2023/03/31 03:45:27;;;;;;;7.20;5.57;;;10.00;92.60;;;;;;5053983;28;20229;-70
2023/03/31 03:47:58;;;;;;;10.45;6.28;;;10.00;93.10;;;;;;5054196;28;20312;-70
2023/03/31 03:50:30;;;;;;;8.48;6.13;;;9.90;94.00;;;;;;5053501;28;20190;-71
2023/03/31 03:52:57;;;;;;;8.25;4.80;;;9.90;94.50;;;;;;5059448;28;20296;-71
2023/03/31 03:55:24;;;;;;;12.32;6.40;;;9.90;95.00;;;;;;5073876;28;20233;-70
2023/03/31 03:57:52;;;;;;;7.00;5.15;;;9.90;95.20;;;;;;5074009;28;20194;-71
2023/03/31 04:00:19;;;;;;;7.10;5.72;;;10.00;94.60;;;;;;5073576;28;20284;-70
2023/03/31 04:02:48;;;;;;;8.70;6.00;;;10.00;94.70;;;;;;5073693;28;20194;-71
2023/03/31 04:05:17;;;;;;;7.90;5.95;;;9.90;95.50;;;;;;5073778;28;20282;-70
2023/03/31 04:07:44;;;;;;;7.72;6.05;;;9.90;95.50;;;;;;5073306;28;20668;-71
2023/03/31 04:10:16;;;;;;;5.70;5.07;;;9.90;95.30;;;;;;5073623;28;20280;-71
2023/03/31 04:12:50;;;;;;;7.03;5.32;;;9.90;95.20;;;;;;5073292;28;20664;-71
2023/03/31 04:15:18;;;;;;;7.90;6.18;;;9.90;95.00;;;;;;5073807;28;20223;-70
2023/03/31 04:17:49;;;;;;;8.85;6.40;;;9.90;95.10;;;;;;5073362;28;20276;-71
2023/03/31 04:20:17;;;;;;;11.52;7.15;;;9.80;95.10;;;;;;5073363;28;20595;-70
2023/03/31 04:22:45;;;;;;;10.35;6.55;;;9.80;95.30;;;;;;5073801;28;20225;-70
2023/03/31 04:25:18;;;;;;;13.32;8.20;;;9.80;95.50;;;;;;5073521;28;20606;-71
2023/03/31 04:27:49;;;;;;;10.20;7.60;;;9.60;95.90;;;;;;5073201;28;20271;-71
2023/03/31 04:30:22;;;;;;;13.10;8.35;;;9.60;96.50;;;;;;5073019;28;20197;-70
2023/03/31 04:32:53;;;;;;;12.15;8.30;;;9.60;96.90;;;;;;5073454;28;20190;-70
2023/03/31 04:35:41;;;;;;;10.10;8.32;;;9.60;97.10;;;;;;5073208;28;20197;-70
2023/03/31 04:38:08;;;;;;;10.70;8.40;;;9.50;97.60;;;;;;5073465;28;20246;-70
2023/03/31 04:40:35;;;;;;;9.30;6.85;;;9.50;97.50;;;;;;5073155;28;20205;-70
2023/03/31 04:43:24;;;;;;;7.60;6.55;;;9.60;97.60;;;;;;5073190;28;20243;-70
2023/03/31 04:45:55;;;;;;;10.60;8.20;;;9.60;97.20;;;;;;5073119;28;20241;-70
2023/03/31 04:48:24;;;;;;;12.73;6.93;;;9.60;97.10;;;;;;5072897;28;20699;-71
2023/03/31 04:50:55;;;;;;;8.13;6.80;;;9.70;97.00;;;;;;5072784;28;20202;-70
2023/03/31 04:53:22;;;;;;;7.82;6.07;;;9.60;96.80;;;;;;5073441;28;20442;-70
2023/03/31 04:55:50;;;;;;;8.77;7.18;;;9.50;97.20;;;;;;5072848;28;20273;-70
2023/03/31 04:58:21;;;;;;;11.18;6.10;;;9.40;97.50;;;;;;5072902;28;20219;-70
2023/03/31 05:00:49;;;;;;;10.00;7.25;;;9.40;97.30;;;;;;5073132;28;20251;-70
2023/03/31 05:03:16;;;;;;;15.00;9.35;;;9.50;97.20;;;;;;5072814;28;20225;-70
2023/03/31 05:05:44;;;;;;;14.10;9.20;;;9.50;97.10;;;;;;5072466;28;20644;-70
2023/03/31 05:08:16;;;;;;;12.48;7.38;;;9.40;96.90;;;;;;5072070;28;20321;-70
2023/03/31 05:10:43;;;;;;;9.15;5.88;;;9.30;97.10;;;;;;5072577;28;20292;-70
2023/03/31 05:13:10;;;;;;;7.30;6.00;;;9.30;97.20;;;;;;5072907;28;20225;-70
2023/03/31 05:15:43;;;;;;;12.68;7.22;;;9.30;97.30;;;;;;5071711;28;20200;-70
2023/03/31 05:18:11;;;;;;;9.90;5.97;;;9.20;97.40;;;;;;5072760;28;20200;-70
2023/03/31 05:20:38;;;;;;;7.78;6.10;;;9.20;97.80;;;;;;5072767;28;20190;-70
2023/03/31 05:23:07;;;;;;;10.13;4.82;;;9.10;97.90;;;;;;5072468;28;20233;-70
2023/03/31 05:25:34;;;;;;;9.02;6.50;;;9.20;97.50;;;;;;5072599;28;20280;-70
2023/03/31 05:28:02;;;;;;;8.35;6.45;;;9.10;97.70;;;;;;5069636;28;20297;-70
2023/03/31 05:30:30;;;;;;;6.25;5.43;;;9.10;97.60;;;;;;5072032;28;20569;-70
2023/03/31 05:32:57;;;;;;;10.27;6.40;;;9.20;97.50;;;;;;5072210;28;20194;-71
2023/03/31 05:35:24;;;;;;;9.52;6.88;;;9.20;97.50;;;;;;5072023;28;20189;-71
2023/03/31 05:37:52;;;;;;;8.05;6.60;;;9.20;97.60;;;;;;5071509;28;20186;-70
2023/03/31 05:40:21;;;;;;;11.40;5.85;;;9.30;97.70;;;;;;5071998;28;20276;-70
2023/03/31 05:42:48;;;;;;;7.88;6.55;;;9.50;96.90;;;;;;5071644;28;20193;-70
2023/03/31 05:45:20;;;;;;;8.57;5.85;;;9.50;96.50;;;;;;5071011;28;20189;-70
2023/03/31 05:47:47;;;;;;;7.70;5.85;;;9.50;96.50;;;;;;5068015;28;20844;-70
2023/03/31 05:50:15;;;;;;;7.75;5.80;;;9.50;95.80;;;;;;5065846;28;20283;-70
2023/03/31 05:52:42;;;;;;;8.30;6.05;;;9.50;95.60;;;;;;5069210;28;20196;-70
2023/03/31 05:55:10;;;;;;;10.80;6.72;;;9.50;95.50;;;;;;5069355;28;20190;-70
2023/03/31 05:57:39;;;;;;;7.65;5.70;;;9.60;95.70;;;;;;5071880;28;20190;-70
2023/03/31 06:00:09;;;;;;;6.00;4.72;;;9.60;95.30;;;;;;5071501;28;20197;-71
2023/03/31 06:02:36;;;;;;;7.28;5.40;;;9.70;95.10;;;;;;5067526;28;20236;-70
2023/03/31 06:05:09;;;;;;;7.70;5.50;;;9.70;95.20;;;;;;5069885;28;20202;-71
2023/03/31 06:07:38;;;;;;;6.03;5.35;;;9.70;94.90;;;;;;5066154;28;20261;-70
2023/03/31 06:10:07;;;;;;;15.35;6.07;;;9.80;94.80;;;;;;5066752;28;20270;-70
2023/03/31 06:12:34;;;;;;;10.65;5.80;;;9.70;94.80;;;;;;5069608;28;20688;-71
2023/03/31 06:15:03;;;;;;;10.45;4.55;;;9.70;95.10;;;;;;5068617;28;20551;-71
2023/03/31 06:17:30;;;;;;;8.30;6.00;;;9.70;95.30;;;;;;5069351;28;20192;-71
2023/03/31 06:19:57;;;;;;;6.93;5.97;;;9.80;95.10;;;;;;5066544;28;20185;-72
2023/03/31 06:22:29;;;;;;;12.18;5.90;;;9.80;95.10;;;;;;5069742;28;20243;-71
2023/03/31 06:24:56;;;;;;;6.68;5.30;;;10.00;94.50;;;;;;5068306;28;20264;-71
2023/03/31 06:27:29;;;;;;;8.70;4.95;;;10.10;94.10;;;;;;5071243;28;20243;-70
2023/03/31 06:29:59;;;;;;;8.07;6.38;;;10.20;93.40;;;;;;5073239;28;20214;-71
2023/03/31 06:32:27;;;;;;;7.80;5.70;;;10.30;93.20;;;;;;5073114;28;20194;-73
2023/03/31 06:34:54;;;;;;;7.47;4.78;;;10.30;92.70;;;;;;5071245;28;20200;-71
2023/03/31 06:37:33;;;;;;;7.60;5.20;;;10.30;92.90;;;;;;5070010;28;20197;-72
2023/03/31 06:40:03;;;;;;;12.55;4.90;;;10.30;93.10;;;;;;5072626;28;20189;-71
2023/03/31 06:42:30;;;;;;;5.70;4.97;;;10.40;92.60;;;;;;5073535;28;20202;-70
2023/03/31 06:44:57;;;;;;;7.78;6.00;;;10.50;92.50;;;;;;5072987;28;20221;-71
2023/03/31 06:47:24;;;;;;;6.85;4.82;;;10.40;92.50;;;;;;5072882;28;20278;-71
2023/03/31 06:49:53;;;;;;;6.63;5.05;;;10.40;92.70;;;;;;5069446;28;20300;-70
2023/03/31 06:52:20;;;;;;;6.38;5.32;;;10.30;93.00;;;;;;5073027;28;20724;-70
2023/03/31 06:54:47;;;;;;;6.75;5.70;;;10.30;93.40;;;;;;5072127;28;20189;-70
2023/03/31 06:57:20;;;;;;;7.07;4.97;;;10.30;93.30;;;;;;5072705;28;20198;-70
2023/03/31 06:59:48;;;;;;;5.65;4.97;;;10.40;93.40;;;;;;5072320;28;20522;-70
2023/03/31 07:02:19;;;;;;;9.15;5.57;;;10.50;93.30;;;;;;5070802;28;20273;-74
2023/03/31 07:04:49;;;;;;;10.27;6.07;;;10.60;93.60;;;;;;5071702;28;20186;-71
2023/03/31 07:07:20;;;;;;;8.88;5.05;;;10.70;93.60;;;;;;5069492;28;20200;-71
2023/03/31 07:09:58;;;;;;;7.30;5.60;;;10.80;93.50;;;;;;5070370;28;20256;-70
2023/03/31 07:12:28;;;;;;;7.00;4.60;;;10.80;93.20;;;;;;5071717;28;20243;-71
2023/03/31 07:15:00;;;;;;;7.47;5.97;;;10.80;93.20;;;;;;5071952;28;20202;-70
2023/03/31 07:17:29;;;;;;;9.07;5.75;;;10.80;93.00;;;;;;5071270;28;20259;-71
2023/03/31 07:20:03;;;;;;;7.35;5.47;;;10.80;93.00;;;;;;5071432;28;20206;-70
2023/03/31 07:22:33;;;;;;;7.80;5.63;;;10.70;93.00;;;;;;5071649;28;20197;-72
2023/03/31 07:25:00;;;;;;;8.60;5.57;;;10.70;93.30;;;;;;5071975;28;20612;-70
2023/03/31 07:27:30;;;;;;;8.82;5.90;;;10.70;93.60;;;;;;5069086;28;20202;-70
2023/03/31 07:30:01;;;;;;;9.00;5.45;;;10.60;93.90;;;;;;5071125;28;20264;-70
2023/03/31 07:32:33;;;;;;;6.55;5.72;;;10.60;94.20;;;;;;5062454;28;20280;-70
2023/03/31 07:35:05;;;;;;;9.05;6.53;;;10.50;94.50;;;;;;5068017;28;20228;-70
2023/03/31 07:37:38;;;;;;;11.30;8.02;;;10.50;94.90;;;;;;5069709;28;20217;-71
2023/03/31 07:40:11;;;;;;;13.52;7.60;;;10.50;95.20;;;;;;5071201;28;20194;-70
2023/03/31 07:42:40;;;;;;;12.05;7.10;;;10.50;95.20;;;;;;5068403;28;20278;-70
2023/03/31 07:45:12;;;;;;;13.23;6.65;;;10.60;95.30;;;;;;5067877;28;20296;-70
2023/03/31 07:47:43;;;;;;;8.32;7.15;;;10.80;95.60;;;;;;5068765;28;20267;-70
2023/03/31 07:50:10;;;;;;;7.93;6.13;;;10.90;95.80;;;;;;5069625;28;20205;-71
2023/03/31 07:52:40;;;;;;;7.15;5.68;;;11.10;95.40;;;;;;5067933;28;20194;-70
2023/03/31 07:55:25;;;;;;;6.57;5.30;;;11.20;94.90;;;;;;5070215;28;20247;-70
2023/03/31 07:57:55;;;;;;;10.10;6.03;;;11.20;94.80;;;;;;5066593;28;20216;-70
2023/03/31 08:00:28;;;;;;;10.13;6.85;;;11.20;94.50;;;;;;5067059;28;20659;-71
2023/03/31 08:02:55;;;;;;;9.02;6.55;;;11.10;94.50;;;;;;5069981;28;20225;-70
2023/03/31 08:05:22;;;;;;;11.18;6.95;;;11.20;94.70;;;;;;5069864;28;20229;-71
2023/03/31 08:07:51;;;;;;;9.13;7.47;;;11.10;94.90;;;;;;5068382;28;20233;-70
2023/03/31 08:10:26;;;;;;;10.25;7.45;;;11.20;95.00;;;;;;5069611;28;20688;-71
2023/03/31 08:12:55;;;;;;;7.95;6.40;;;11.30;94.90;;;;;;5068284;28;20245;-70
2023/03/31 08:15:23;;;;;;;7.72;6.57;;;11.30;94.90;;;;;;5069356;28;20190;-73
2023/03/31 08:17:50;;;;;;;8.15;6.85;;;11.40;95.20;;;;;;5065712;28;20206;-71
2023/03/31 08:20:17;;;;;;;8.05;6.35;;;11.40;95.20;;;;;;5059828;28;20182;-71
2023/03/31 08:22:46;;;;;;;8.50;6.00;;;11.40;94.80;;;;;;5066152;28;20240;-70
2023/03/31 08:25:15;;;;;;;7.25;5.93;;;11.40;94.20;;;;;;5070300;28;20274;-70
2023/03/31 08:27:42;;;;;;;9.45;6.10;;;11.30;94.20;;;;;;5069672;28;20205;-73
2023/03/31 08:30:11;;;;;;;6.80;5.20;;;11.30;94.20;;;;;;5066613;28;20541;-71
2023/03/31 08:32:46;;;;;;;7.60;5.53;;;11.30;92.30;;;;;;5066687;28;20225;-70
2023/03/31 08:35:20;;;;;;;6.60;5.05;;;11.50;91.40;;;;;;5069528;28;20651;-70
2023/03/31 08:37:51;;;;;;;11.88;5.45;;;11.80;91.30;;;;;;5069952;28;20189;-70
2023/03/31 08:40:24;;;;;;;6.93;5.57;;;11.90;90.20;;;;;;5063031;28;20194;-71
2023/03/31 08:42:53;;;;;;;7.53;4.75;;;12.10;90.30;;;;;;5064852;28;20197;-71
2023/03/31 08:45:23;;;;;;;12.15;9.27;;;12.20;90.60;;;;;;5065040;28;20210;-70
2023/03/31 08:47:53;;;;;;;7.05;4.45;;;12.30;90.20;;;;;;5061532;28;20663;-71
2023/03/31 08:50:25;;;;;;;8.88;5.32;;;12.40;90.30;;;;;;5067875;28;20213;-70
2023/03/31 08:52:59;;;;;;;5.13;4.20;;;12.60;89.70;;;;;;5061373;28;20245;-70
2023/03/31 08:55:31;;;;;;;5.18;3.95;;;12.70;87.00;;;;;;5062784;28;20194;-70
2023/03/31 08:58:04;;;;;;;6.75;4.75;;;12.80;85.60;;;;;;5069439;28;20186;-70
2023/03/31 09:00:39;;;;;;;4.73;4.00;;;13.00;85.60;;;;;;5068412;28;20189;-70
2023/03/31 09:03:17;;;;;;;5.53;4.60;;;13.20;85.90;;;;;;5069680;28;20810;-70
2023/03/31 09:05:50;;;;;;;6.80;4.57;;;13.50;85.00;;;;;;5069209;28;20197;-70
2023/03/31 09:08:30;;;;;;;5.00;4.00;;;13.90;85.00;;;;;;5068788;28;20486;-72
2023/03/31 09:11:06;;;;;;;6.50;3.60;;;15.50;82.90;;;;;;5063607;28;20577;-70
2023/03/31 09:13:59;;;;;;;8.50;3.90;;;17.00;72.80;;;;;;5067207;28;20864;-71
2023/03/31 09:16:31;;;;;;;8.93;4.03;;;17.60;67.20;;;;;;5066450;28;20480;-70
2023/03/31 09:19:01;;;;;;;5.20;3.20;;;18.10;63.20;;;;;;5067840;28;20471;-70
2023/03/31 09:21:31;;;;;;;3.70;3.07;;;18.90;59.70;;;;;;5067993;28;20838;-71
2023/03/31 09:24:12;;;;;;;4.83;3.33;;;18.70;57.10;;;;;;5067358;28;20475;-71
2023/03/31 09:26:43;;;;;;;4.77;3.23;;;18.20;57.20;;;;;;5066373;28;20522;-72
2023/03/31 09:29:18;;;;;;;6.13;2.90;;;17.90;58.20;;;;;;5069118;28;20571;-71
2023/03/31 09:31:46;;;;;;;5.20;3.90;;;17.60;57.40;;;;;;5067316;28;20489;-71
2023/03/31 09:34:17;;;;;;;4.60;3.10;;;17.30;57.60;;;;;;5069662;28;20440;-71
2023/03/31 09:36:44;;;;;;;4.47;2.87;;;16.90;58.30;;;;;;5067083;28;20448;-74
2023/03/31 09:39:15;;;;;;;3.80;2.33;;;16.70;58.60;;;;;;5065847;28;20486;-71
2023/03/31 09:41:46;;;;;;;9.73;3.50;;;16.50;58.90;;;;;;5068691;28;20452;-71
2023/03/31 09:44:27;;;;;;;4.70;3.53;;;16.30;59.00;;;;;;5069355;28;20848;-71
2023/03/31 09:46:55;;;;;;;5.67;2.43;;;16.20;59.40;;;;;;5067739;28;20447;-71
2023/03/31 09:49:25;;;;;;;5.57;4.03;;;16.10;60.00;;;;;;5068080;28;20483;-70
2023/03/31 09:52:02;;;;;;;8.23;4.40;;;16.50;59.30;;;;;;5064714;28;20522;-71
2023/03/31 09:54:36;;;;;;;5.47;4.50;;;16.80;59.50;;;;;;5065448;28;20915;-71
2023/03/31 09:57:13;;;;;;;5.33;3.50;;;17.60;57.10;;;;;;5064464;28;20840;-71
2023/03/31 09:59:42;;;;;;;6.33;3.73;;;18.80;55.80;;;;;;5066003;28;20523;-72
2023/03/31 10:02:36;;;;;;;5.57;3.57;;;23.10;50.40;;;;;;5072173;28;20776;-71
2023/03/31 10:05:05;;;;;;;7.50;4.37;;;27.30;39.50;;;;;;5070487;28;20455;-72
2023/03/31 10:07:34;;;;;;;5.37;3.80;;;27.30;34.90;;;;;;5073056;28;20439;-72
2023/03/31 10:10:02;;;;;;;5.43;4.10;;;27.10;35.80;;;;;;5072235;28;20523;-72
2023/03/31 10:12:31;;;;;;;8.50;4.20;;;28.20;31.10;;;;;;5071370;28;20769;-74
2023/03/31 10:15:16;;;;;;;5.00;4.10;;;28.30;29.60;;;;;;5072463;28;20431;-72
2023/03/31 10:17:45;;;;;;;6.60;3.93;;;28.90;30.90;;;;;;5070367;28;20444;-73
2023/03/31 10:20:21;;;;;;;5.43;4.13;;;30.70;28.10;;;;;;5072884;28;20505;-72
2023/03/31 10:22:48;;;;;;;8.20;5.43;;;32.10;26.00;;;;;;5072839;28;20424;-73
2023/03/31 10:25:18;;;;;;;5.60;4.20;;;32.80;24.80;;;;;;5072691;28;20522;-75
2023/03/31 10:27:54;;;;;;;7.40;4.20;;;34.50;23.80;;;;;;5073074;28;20463;-72
2023/03/31 10:30:23;;;;;;;5.37;4.13;;;33.20;21.80;;;;;;5071444;28;20536;-72
2023/03/31 10:32:51;;;;;;;6.53;4.13;;;30.50;23.40;;;;;;5072328;28;20436;-72
2023/03/31 10:35:26;;;;;;;8.13;4.67;;;28.40;25.50;;;;;;5071400;28;20428;-72
2023/03/31 10:37:57;;;;;;;8.13;4.30;;;26.70;27.90;;;;;;5072675;28;20442;-73
2023/03/31 10:40:27;;;;;;;7.53;4.37;;;25.30;29.20;;;;;;5066146;28;20526;-72
2023/03/31 10:43:09;;;;;;;8.43;4.33;;;23.90;31.00;;;;;;5072136;28;20953;-72
2023/03/31 10:45:45;;;;;;;6.73;3.63;;;22.60;33.20;;;;;;5068957;28;20451;-72
2023/03/31 10:48:19;;;;;;;7.27;4.20;;;21.60;35.40;;;;;;5068239;28;21181;-71
2023/03/31 10:50:47;;;;;;;7.90;4.70;;;20.70;37.80;;;;;;5068966;28;20566;-72
2023/03/31 10:53:16;;;;;;;6.63;3.67;;;20.00;39.40;;;;;;5067458;28;20471;-72
2023/03/31 10:56:04;;;;;;;6.10;4.10;;;19.40;40.20;;;;;;5071019;28;20498;-72
2023/03/31 10:58:47;;;;;;;5.67;4.47;;;18.90;42.00;;;;;;5066628;28;20833;-71
2023/03/31 11:01:28;;;;;;;5.30;4.80;;;18.40;42.90;;;;;;5070042;28;20439;-71
2023/03/31 11:04:15;;;;;;;6.80;5.10;;;17.90;44.20;;;;;;5071345;28;20974;-71
2023/03/31 11:06:55;;;;;;;5.40;4.30;;;17.50;45.80;;;;;;5067901;28;20440;-73
2023/03/31 11:09:36;;;;;;;6.90;5.03;;;17.10;48.20;;;;;;5065954;28;20463;-71
2023/03/31 11:12:13;;;;;;;9.23;4.60;;;16.80;50.30;;;;;;5065497;28;20528;-71
2023/03/31 11:14:58;;;;;;;7.17;4.80;;;16.50;52.00;;;;;;5071796;28;20489;-72
2023/03/31 11:17:36;;;;;;;13.03;5.33;;;16.10;53.10;;;;;;5069641;28;20440;-71
2023/03/31 11:20:17;;;;;;;6.97;3.50;;;15.70;50.40;;;;;;5070003;28;20523;-71
2023/03/31 11:22:51;;;;;;;6.67;2.93;;;15.30;52.70;;;;;;5068705;28;20935;-74
2023/03/31 11:25:34;;;;;;;6.67;3.03;;;15.00;54.20;;;;;;5072232;28;20448;-71
2023/03/31 11:28:29;;;;;;;4.30;2.67;;;14.60;55.80;;;;;;5070295;28;20443;-70
2023/03/31 11:31:10;;;;;;;5.53;2.73;;;14.40;56.10;;;;;;5069242;28;20978;-71
2023/03/31 11:33:53;;;;;;;7.43;2.43;;;14.80;57.50;;;;;;5070417;28;20536;-71
2023/03/31 11:36:31;;;;;;;3.97;2.77;;;18.50;53.40;;;;;;5072033;28;20444;-71
2023/03/31 11:39:19;;;;;;;2.83;1.73;;;22.90;44.60;;;;;;5070674;28;20527;-72
2023/03/31 11:41:51;;;;;;;4.03;2.00;;;25.70;36.90;;;;;;5068149;28;20526;-72
2023/03/31 11:44:20;;;;;;;2.63;1.70;;;28.00;32.40;;;;;;5066774;28;20475;-72
2023/03/31 11:46:52;;;;;;;3.27;1.80;;;28.80;29.00;;;;;;5070499;28;20445;-72
2023/03/31 11:49:22;;;;;;;5.57;2.23;;;28.60;28.40;;;;;;5070469;28;20436;-72
2023/03/31 11:51:54;;;;;;;4.77;2.50;;;28.30;28.10;;;;;;5070470;28;20563;-72
2023/03/31 11:54:36;;;;;;;4.00;2.20;;;27.60;28.70;;;;;;5068400;28;20476;-72
2023/03/31 11:57:10;;;;;;;3.70;2.77;;;25.90;28.90;;;;;;5069580;28;20436;-72
2023/03/31 11:59:39;;;;;;;4.57;2.80;;;24.30;30.10;;;;;;5070411;28;20784;-72
2023/03/31 12:02:17;;;;;;;5.27;2.90;;;23.10;32.10;;;;;;5070237;28;20470;-71
2023/03/31 12:04:51;;;;;;;6.00;2.27;;;22.20;34.20;;;;;;5069810;28;20450;-72
2023/03/31 12:07:30;;;;;;;4.40;2.40;;;21.40;35.60;;;;;;5066358;28;20937;-73
2023/03/31 12:10:05;;;;;;;3.83;2.17;;;20.80;37.20;;;;;;5066968;28;20562;-71
2023/03/31 12:12:35;;;;;;;4.13;2.53;;;20.70;38.50;;;;;;5069997;28;20444;-72
2023/03/31 12:15:14;;;;;;;5.77;3.47;;;21.10;39.30;;;;;;5071126;28;20802;-71
2023/03/31 12:17:53;;;;;;;5.00;2.40;;;22.60;37.90;;;;;;5069618;28;20494;-73
2023/03/31 12:20:29;;;;;;;5.60;2.53;;;23.90;34.50;;;;;;5067757;28;20862;-72
2023/03/31 12:23:01;;;;;;;3.57;2.33;;;24.00;34.50;;;;;;5067599;28;20494;-72
2023/03/31 12:25:42;;;;;;;4.90;2.70;;;23.60;34.60;;;;;;5064488;28;20455;-73
2023/03/31 12:28:26;;;;;;;3.63;2.60;;;23.00;33.70;;;;;;5067937;28;20476;-72
2023/03/31 12:30:55;;;;;;;3.87;2.60;;;22.30;35.20;;;;;;5070209;28;20909;-72
2023/03/31 12:33:27;;;;;;;5.03;3.00;;;21.60;36.40;;;;;;5066738;28;20447;-72
2023/03/31 12:36:15;;;;;;;4.80;2.67;;;20.90;37.40;;;;;;5070519;28;20888;-72
2023/03/31 12:38:56;;;;;;;4.60;2.63;;;20.20;38.40;;;;;;5067330;28;20472;-71
2023/03/31 12:41:32;;;;;;;5.20;3.00;;;19.40;40.00;;;;;;5069798;28;20935;-72
2023/03/31 12:44:21;;;;;;;7.60;3.17;;;18.90;41.90;;;;;;5071254;28;20985;-71
2023/03/31 12:47:08;;;;;;;8.23;2.50;;;18.20;45.10;;;;;;5068610;28;20576;-70
2023/03/31 12:49:59;;;;;;;3.47;1.70;;;17.30;44.40;;;;;;5067539;28;20519;-70
2023/03/31 12:52:37;;;;;;;2.70;1.20;;;16.30;46.30;;;;;;5071299;28;20937;-70
2023/03/31 12:55:31;;;;;;;2.60;1.03;;;15.70;47.00;;;;;;5070984;28;20460;-70
2023/03/31 12:58:33;;;;;;;2.73;1.27;;;15.20;49.00;;;;;;5069318;28;20486;-70
2023/03/31 13:01:06;;;;;;;5.00;1.43;;;14.60;50.00;;;;;;5071023;28;20511;-70
2023/03/31 13:03:49;;;;;;;2.13;1.13;;;14.30;52.30;;;;;;5065316;28;20558;-70
2023/03/31 13:06:53;;;;;;;2.40;1.23;;;14.00;53.70;;;;;;5065810;28;20994;-70
2023/03/31 13:09:46;;;;;;;7.43;1.67;;;13.80;55.00;;;;;;5067726;28;21038;-70
2023/03/31 13:12:24;;;;;;;2.90;1.20;;;13.80;55.90;;;;;;5069164;28;20590;-70
2023/03/31 13:14:53;;;;;;;4.20;1.40;;;13.80;56.30;;;;;;5069272;28;20435;-70
2023/03/31 13:17:27;;;;;;;2.33;1.17;;;13.80;56.40;;;;;;5070267;28;20604;-70
2023/03/31 13:19:55;;;;;;;3.20;1.67;;;13.80;56.50;;;;;;5069249;28;21005;-70